createdAt,value
2022-11-25T00:02:30.715Z,118.55
2022-11-25T00:05:42.625Z,112.73
2022-11-25T00:08:57.914Z,115.83
2022-11-25T00:12:09.970Z,107.83
2022-11-25T00:15:22.017Z,117.63
2022-11-25T00:18:33.746Z,116.03
2022-11-25T00:21:45.534Z,110.60
2022-11-25T00:24:57.235Z,108.05
2022-11-25T00:28:08.993Z,101.73
2022-11-25T00:31:23.699Z,102.38
2022-11-25T00:34:35.818Z,99.73
2022-11-25T00:37:47.828Z,100.70
2022-11-25T00:41:12.041Z,95.03
2022-11-25T00:44:41.653Z,103.35
2022-11-25T00:47:54.004Z,110.23
2022-11-25T00:51:05.731Z,103.38
2022-11-25T00:54:19.995Z,103.80
2022-11-25T00:57:31.770Z,95.58
2022-11-25T01:00:44.969Z,90.50
2022-11-25T01:03:58.248Z,88.28
2022-11-25T01:07:10.247Z,91.43
2022-11-25T01:10:22.501Z,93.63
2022-11-25T01:13:34.332Z,86.28
2022-11-25T01:16:46.192Z,82.15
2022-11-25T01:19:57.930Z,77.38
2022-11-25T01:23:09.645Z,82.38
2022-11-25T01:26:24.044Z,86.03
2022-11-25T01:29:36.169Z,82.70
2022-11-25T01:32:48.490Z,73.93
2022-11-25T01:36:00.148Z,83.45
2022-11-25T01:39:12.717Z,80.00
2022-11-25T01:42:25.583Z,82.13
2022-11-25T01:45:45.767Z,79.98
2022-11-25T01:49:01.851Z,76.43
2022-11-25T01:52:21.939Z,75.90
2022-11-25T01:55:37.096Z,82.00
2022-11-25T01:58:51.423Z,80.60
2022-11-25T02:02:04.827Z,85.90
2022-11-25T02:05:20.793Z,79.75
2022-11-25T02:08:37.445Z,81.47
2022-11-25T02:11:51.197Z,74.50
2022-11-25T02:15:12.377Z,75.30
2022-11-25T02:18:24.586Z,73.28
2022-11-25T02:22:08.893Z,72.25
2022-11-25T02:25:26.376Z,71.95
2022-11-25T02:28:39.433Z,76.35
2022-11-25T02:31:54.609Z,78.05
2022-11-25T02:35:06.467Z,72.43
2022-11-25T02:38:23.268Z,67.85
2022-11-25T02:41:39.718Z,64.38
2022-11-25T02:48:03.129Z,61.58
2022-11-25T02:51:19.124Z,70.05
2022-11-25T02:54:31.723Z,67.28
2022-11-25T02:57:45.366Z,71.20
2022-11-25T03:00:57.651Z,66.95
2022-11-25T03:04:10.368Z,67.53
2022-11-25T03:07:22.743Z,67.55
2022-11-25T03:10:35.074Z,58.43
2022-11-25T03:13:47.280Z,50.88
2022-11-25T03:17:00.103Z,42.23
2022-11-25T03:20:15.376Z,40.23
2022-11-25T03:23:27.540Z,39.55
2022-11-25T03:26:39.784Z,42.45
2022-11-25T03:29:52.554Z,36.35
2022-11-25T03:33:05.816Z,35.80
2022-11-25T03:36:18.887Z,44.45
2022-11-25T03:39:32.939Z,48.28
2022-11-25T03:42:46.352Z,51.75
2022-11-25T03:45:58.528Z,53.25
2022-11-25T03:49:10.697Z,54.60
2022-11-25T03:52:22.478Z,52.73
2022-11-25T03:55:34.901Z,56.63
2022-11-25T03:58:46.789Z,62.93
2022-11-25T04:01:59.224Z,62.35
2022-11-25T04:05:13.051Z,55.30
2022-11-25T04:08:24.941Z,55.13
2022-11-25T04:11:48.040Z,63.55
2022-11-25T04:15:00.087Z,63.75
2022-11-25T04:18:12.037Z,73.83
2022-11-25T04:21:24.315Z,72.33
2022-11-25T04:24:37.250Z,75.68
2022-11-25T04:27:49.606Z,73.15
2022-11-25T04:31:03.502Z,74.40
2022-11-25T04:34:15.638Z,80.70
2022-11-25T04:37:29.553Z,85.15
2022-11-25T04:40:43.112Z,82.93
2022-11-25T04:43:56.810Z,80.55
2022-11-25T04:47:08.865Z,77.45
2022-11-25T04:50:25.541Z,74.98
2022-11-25T04:53:42.699Z,74.45
2022-11-25T04:56:55.406Z,76.63
2022-11-25T05:00:11.831Z,68.03
2022-11-25T05:03:23.868Z,65.45
2022-11-25T05:06:36.088Z,65.90
2022-11-25T05:09:50.032Z,58.45
2022-11-25T05:13:03.940Z,61.50
2022-11-25T05:16:17.034Z,54.70
2022-11-25T05:19:29.278Z,53.05
2022-11-25T05:22:42.099Z,47.28
2022-11-25T05:25:55.870Z,47.40
2022-11-25T05:29:09.774Z,49.73
2022-11-25T05:32:22.069Z,54.58
2022-11-25T05:35:34.305Z,53.83
2022-11-25T05:38:54.019Z,52.55
2022-11-25T05:42:07.894Z,55.93
2022-11-25T05:45:19.892Z,68.40
2022-11-25T05:48:32.062Z,66.93
2022-11-25T05:51:45.950Z,66.23
2022-11-25T05:54:57.744Z,71.05
2022-11-25T05:58:10.635Z,64.20
2022-11-25T06:01:23.741Z,66.75
2022-11-25T06:04:35.790Z,71.43
2022-11-25T06:07:48.037Z,71.23
2022-11-25T06:11:00.581Z,68.10
2022-11-25T06:14:12.486Z,64.30
2022-11-25T06:17:24.515Z,59.60
2022-11-25T06:20:38.428Z,68.25
2022-11-25T06:23:50.811Z,71.83
2022-11-25T06:27:03.470Z,70.15
2022-11-25T06:30:18.983Z,65.05
2022-11-25T06:33:32.568Z,63.18
2022-11-25T06:36:46.229Z,65.90
2022-11-25T06:39:57.977Z,68.35
2022-11-25T06:43:11.579Z,68.78
2022-11-25T06:46:26.241Z,74.55
2022-11-25T06:49:38.094Z,77.13
2022-11-25T06:52:49.867Z,63.83
2022-11-25T06:56:16.495Z,74.38
2022-11-25T06:59:28.792Z,79.80
2022-11-25T07:02:44.213Z,74.35
2022-11-25T07:05:55.026Z,94.75
2022-11-25T07:09:08.078Z,71.55
2022-11-25T07:12:19.748Z,68.65
2022-11-25T07:15:31.586Z,76.73
2022-11-25T07:18:45.243Z,78.63
2022-11-25T07:21:57.033Z,82.15
2022-11-25T07:25:09.504Z,79.83
2022-11-25T07:28:21.194Z,83.58
2022-11-25T07:31:35.698Z,89.58
2022-11-25T07:34:47.955Z,93.78
2022-11-25T07:37:59.543Z,97.08
2022-11-25T07:41:17.695Z,93.68
2022-11-25T07:44:29.397Z,99.88
2022-11-25T07:47:49.216Z,91.75
2022-11-25T07:51:00.959Z,91.23
2022-11-25T07:54:15.914Z,98.80
2022-11-25T07:57:27.743Z,109.40
2022-11-25T08:00:39.395Z,99.30
2022-11-25T08:03:53.985Z,93.18
2022-11-25T08:07:05.932Z,90.38
2022-11-25T08:10:18.567Z,101.83
2022-11-25T08:13:30.317Z,100.78
2022-11-25T08:16:42.370Z,101.58
2022-11-25T08:19:54.527Z,91.23
2022-11-25T08:23:06.158Z,95.65
2022-11-25T08:26:20.979Z,91.35
2022-11-25T08:29:32.595Z,141.10
2022-11-25T08:32:46.185Z,96.08
2022-11-25T08:36:01.795Z,99.28
2022-11-25T08:39:36.241Z,91.43
2022-11-25T08:42:28.476Z,96.23
2022-11-25T08:45:40.135Z,99.00
2022-11-25T08:48:52.266Z,102.15
2022-11-25T08:52:04.067Z,105.50
2022-11-25T08:55:16.878Z,101.83
2022-11-25T08:58:28.675Z,100.70
2022-11-25T09:01:40.865Z,104.10
2022-11-25T09:04:52.677Z,108.25
2022-11-25T09:08:04.800Z,113.18
2022-11-25T09:11:18.695Z,105.88
2022-11-25T09:14:30.578Z,98.30
2022-11-25T09:17:42.291Z,101.28
2022-11-25T09:20:54.642Z,112.53
2022-11-25T09:24:06.431Z,99.48
2022-11-25T09:27:18.258Z,102.60
2022-11-25T09:30:30.436Z,90.40
2022-11-25T09:33:42.945Z,94.40
2022-11-25T09:36:54.753Z,92.35
2022-11-25T09:40:06.545Z,86.55
2022-11-25T09:43:43.118Z,88.63
2022-11-25T09:47:02.292Z,87.98
2022-11-25T09:50:24.573Z,91.45
2022-11-25T09:53:49.307Z,83.68
2022-11-25T09:57:07.389Z,86.13
2022-11-25T10:00:24.794Z,86.18
2022-11-25T10:03:43.538Z,88.65
2022-11-25T10:07:01.273Z,79.63
2022-11-25T10:10:23.717Z,77.70
2022-11-25T10:13:44.456Z,80.80
2022-11-25T10:17:01.289Z,83.65
2022-11-25T10:20:19.613Z,88.33
2022-11-25T10:23:36.262Z,88.73
2022-11-25T10:26:52.998Z,94.20
2022-11-25T10:30:16.070Z,85.73
2022-11-25T10:33:30.977Z,92.15
2022-11-25T10:36:46.447Z,89.43
2022-11-25T10:39:58.451Z,101.38
2022-11-25T10:43:18.496Z,88.38
2022-11-25T10:47:11.145Z,88.95
2022-11-25T10:49:59.468Z,87.45
2022-11-25T10:53:19.539Z,87.38
2022-11-25T10:56:31.443Z,100.30
2022-11-25T10:59:45.082Z,94.67
2022-11-25T11:02:57.463Z,87.90
2022-11-25T11:06:10.512Z,89.45
2022-11-25T11:09:46.383Z,83.95
2022-11-25T11:13:08.208Z,89.45
2022-11-25T11:16:36.527Z,96.83
2022-11-25T11:19:48.630Z,92.23
2022-11-25T11:23:09.567Z,91.95
2022-11-25T11:26:30.354Z,90.90
2022-11-25T11:29:42.572Z,98.85
2022-11-25T11:33:06.385Z,97.88
2022-11-25T11:36:30.391Z,97.50
2022-11-25T11:40:03.109Z,97.90
2022-11-25T11:44:04.538Z,91.33
2022-11-25T11:47:25.078Z,107.05
2022-11-25T11:50:43.743Z,95.95
2022-11-25T11:54:04.043Z,97.50
2022-11-25T11:57:22.632Z,104.55
2022-11-25T12:00:39.204Z,92.35
2022-11-25T12:03:58.592Z,98.28
2022-11-25T12:07:15.954Z,95.30
2022-11-25T12:10:35.160Z,94.83
2022-11-25T12:13:55.349Z,93.73
2022-11-25T12:17:11.914Z,96.53
2022-11-25T12:20:32.047Z,90.35
2022-11-25T12:23:53.006Z,97.80
2022-11-25T12:27:09.400Z,101.63
2022-11-25T12:30:26.474Z,104.03
2022-11-25T12:36:56.223Z,96.77
2022-11-25T12:40:16.252Z,95.85
2022-11-25T12:43:38.396Z,97.03
2022-11-25T12:46:54.070Z,96.40
2022-11-25T12:50:06.138Z,97.58
2022-11-25T12:53:24.363Z,94.93
2022-11-25T12:56:46.402Z,94.28
2022-11-25T13:04:11.027Z,93.38
2022-11-25T13:07:42.739Z,83.08
2022-11-25T13:11:12.212Z,84.18
2022-11-25T13:14:31.646Z,87.85
2022-11-25T13:17:47.791Z,80.30
2022-11-25T13:21:00.749Z,87.17
2022-11-25T13:24:28.565Z,77.10
2022-11-25T13:27:58.839Z,78.88
2022-11-25T13:31:27.699Z,78.35
2022-11-25T13:34:40.728Z,89.03
2022-11-25T13:37:52.532Z,77.30
2022-11-25T13:41:24.809Z,75.25
2022-11-25T13:44:39.207Z,77.73
2022-11-25T13:47:54.633Z,69.78
2022-11-25T13:51:27.218Z,77.90
2022-11-25T13:54:47.928Z,73.73
2022-11-25T13:58:22.450Z,74.30
2022-11-25T14:01:34.460Z,75.15
2022-11-25T14:04:53.954Z,76.33
2022-11-25T14:08:12.567Z,74.80
2022-11-25T14:11:56.911Z,75.70
2022-11-25T14:15:28.925Z,63.60
2022-11-25T14:19:51.669Z,64.15
2022-11-25T14:23:26.658Z,67.38
2022-11-25T14:26:50.050Z,61.10
2022-11-25T14:29:58.921Z,60.63
2022-11-25T14:33:14.464Z,58.88
2022-11-25T14:36:30.742Z,58.80
2022-11-25T14:39:48.117Z,63.60
2022-11-25T14:43:04.979Z,62.78
2022-11-25T14:46:25.669Z,73.95
2022-11-25T14:50:11.792Z,63.95
2022-11-25T14:53:06.472Z,63.23
2022-11-25T14:56:19.855Z,61.93
2022-11-25T14:59:34.014Z,60.68
2022-11-25T15:02:58.029Z,72.38
2022-11-25T15:06:15.385Z,90.53
2022-11-25T15:09:31.472Z,96.23
2022-11-25T15:12:46.434Z,96.58
2022-11-25T15:15:59.723Z,110.50
2022-11-25T15:19:19.040Z,110.73
2022-11-25T15:22:31.365Z,111.80
2022-11-25T15:25:54.151Z,110.20
2022-11-25T15:29:08.895Z,110.58
2022-11-25T15:35:37.822Z,105.20
2022-11-25T15:38:52.293Z,106.08
2022-11-25T15:42:14.484Z,113.58
2022-11-25T15:45:29.420Z,103.65
2022-11-25T15:48:46.332Z,108.78
2022-11-25T15:52:03.399Z,111.93
2022-11-25T15:55:27.995Z,105.23
2022-11-25T15:58:40.698Z,113.00
2022-11-25T16:01:52.861Z,118.00
2022-11-25T16:05:40.758Z,110.33
2022-11-25T16:09:00.751Z,105.05
2022-11-25T16:12:22.298Z,111.18
2022-11-25T16:15:52.923Z,109.45
2022-11-25T16:19:22.528Z,110.80
2022-11-25T16:22:35.039Z,115.08
2022-11-25T16:25:48.939Z,110.05
2022-11-25T16:29:04.373Z,101.75
2022-11-25T16:32:22.648Z,106.90
2022-11-25T16:35:34.625Z,110.30
2022-11-25T16:38:46.510Z,108.05
2022-11-25T16:42:05.691Z,108.80
2022-11-25T16:45:26.563Z,103.28
2022-11-25T16:48:39.231Z,104.30
2022-11-25T16:51:54.618Z,105.85
2022-11-25T16:55:07.104Z,104.25
2022-11-25T16:58:25.253Z,102.65
2022-11-25T17:01:39.393Z,102.53
2022-11-25T17:04:51.913Z,89.25
2022-11-25T17:08:04.184Z,98.10
2022-11-25T17:11:22.721Z,91.18
2022-11-25T17:14:40.261Z,96.80
2022-11-25T17:17:53.683Z,96.60
2022-11-25T17:21:05.853Z,94.60
2022-11-25T17:24:24.560Z,90.58
2022-11-25T17:27:38.881Z,92.78
2022-11-25T17:30:53.985Z,95.08
2022-11-25T17:34:05.958Z,97.15
2022-11-25T17:37:22.788Z,94.13
2022-11-25T17:40:34.913Z,98.48
2022-11-25T17:43:47.488Z,97.58
2022-11-25T17:47:00.880Z,106.45
2022-11-25T17:50:25.604Z,110.48
2022-11-25T17:53:37.984Z,97.78
2022-11-25T17:56:52.684Z,100.45
2022-11-25T18:00:04.934Z,102.88
2022-11-25T18:03:19.811Z,102.20
2022-11-25T18:06:31.780Z,100.60
2022-11-25T18:09:44.488Z,99.55
2022-11-25T18:12:59.570Z,85.25
2022-11-25T18:16:12.429Z,86.47
2022-11-25T18:19:24.709Z,91.03
2022-11-25T18:22:36.830Z,90.70
2022-11-25T18:25:49.643Z,96.85
2022-11-25T18:29:01.747Z,96.60
2022-11-25T18:32:14.758Z,94.90
2022-11-25T18:35:35.415Z,93.78
2022-11-25T18:38:43.681Z,93.60
2022-11-25T18:41:58.897Z,94.18
2022-11-25T18:45:15.293Z,101.93
2022-11-25T18:48:29.505Z,100.00
2022-11-25T18:51:41.876Z,94.28
2022-11-25T18:54:53.823Z,89.98
2022-11-25T18:58:07.689Z,96.35
2022-11-25T19:01:21.907Z,98.93
2022-11-25T19:04:34.097Z,98.33
2022-11-25T19:07:46.537Z,99.33
2022-11-25T19:10:59.439Z,88.35
2022-11-25T19:14:16.189Z,92.80
2022-11-25T19:17:30.269Z,95.48
2022-11-25T19:20:42.334Z,87.53
2022-11-25T19:23:55.229Z,93.03
2022-11-25T19:27:07.656Z,85.00
2022-11-25T19:30:26.172Z,78.05
2022-11-25T19:33:41.095Z,71.45
2022-11-25T19:36:53.394Z,60.55
2022-11-25T19:40:08.994Z,58.45
2022-11-25T19:43:22.655Z,34.45
2022-11-25T19:47:07.058Z,33.23
2022-11-25T19:49:52.039Z,29.98
2022-11-25T19:53:04.112Z,30.98
2022-11-25T19:56:23.763Z,27.20
2022-11-25T19:59:35.651Z,28.40
2022-11-25T20:02:48.245Z,27.50
2022-11-25T20:06:01.580Z,21.83
2022-11-25T20:09:18.575Z,18.30
2022-11-25T20:15:46.745Z,21.73
2022-11-25T20:19:02.315Z,17.55
2022-11-25T20:22:15.632Z,21.40
2022-11-25T20:25:29.818Z,21.28
2022-11-25T20:28:42.764Z,23.68
2022-11-25T20:31:54.880Z,24.50
2022-11-25T20:35:07.584Z,31.33
2022-11-25T20:38:24.140Z,36.05
2022-11-25T20:41:37.389Z,34.53
2022-11-25T20:44:52.140Z,33.95
2022-11-25T20:48:03.301Z,34.83
2022-11-25T20:51:22.143Z,26.60
2022-11-25T20:54:36.295Z,28.28
2022-11-25T20:57:48.636Z,48.28
2022-11-25T21:01:03.440Z,35.93
2022-11-25T21:04:15.258Z,29.30
2022-11-25T21:07:27.567Z,28.40
2022-11-25T21:10:39.754Z,31.65
2022-11-25T21:13:52.896Z,34.85
2022-11-25T21:17:04.937Z,42.78
2022-11-25T21:20:19.118Z,45.05
2022-11-25T21:23:34.631Z,38.40
2022-11-25T21:26:46.659Z,35.65
2022-11-25T21:29:58.925Z,35.65
2022-11-25T21:33:13.154Z,39.00
2022-11-25T21:36:28.448Z,36.75
2022-11-25T21:39:41.751Z,36.05
2022-11-25T21:42:53.533Z,55.38
2022-11-25T21:46:08.663Z,56.40
2022-11-25T21:49:23.698Z,59.55
2022-11-25T21:52:35.491Z,59.45
2022-11-25T21:55:47.709Z,54.23
2022-11-25T21:59:02.984Z,54.23
2022-11-25T22:02:25.552Z,44.50
2022-11-25T22:05:37.470Z,43.75
2022-11-25T22:08:49.519Z,44.38
2022-11-25T22:12:01.531Z,58.43
2022-11-25T22:15:20.604Z,53.13
2022-11-25T22:18:36.240Z,54.53
2022-11-25T22:21:47.986Z,55.25
2022-11-25T22:24:59.868Z,55.75
2022-11-25T22:28:11.982Z,55.33
2022-11-25T22:31:25.477Z,57.60
2022-11-25T22:34:38.281Z,51.98
2022-11-25T22:37:55.136Z,46.65
2022-11-25T22:41:08.705Z,55.58
2022-11-25T22:44:27.976Z,49.83
2022-11-25T22:47:43.856Z,55.75
2022-11-25T22:50:55.642Z,46.75
2022-11-25T22:54:09.561Z,46.63
2022-11-25T22:57:21.647Z,48.48
2022-11-25T23:00:37.416Z,49.63
2022-11-25T23:03:50.407Z,50.95
2022-11-25T23:07:02.371Z,67.70
2022-11-25T23:10:22.880Z,67.80
2022-11-25T23:13:34.732Z,67.33
2022-11-25T23:16:48.162Z,62.45
2022-11-25T23:20:01.747Z,69.38
2022-11-25T23:23:19.932Z,74.13
2022-11-25T23:26:35.023Z,75.98
2022-11-25T23:29:46.489Z,73.70
2022-11-25T23:32:59.842Z,76.95
2022-11-25T23:36:16.537Z,81.35
2022-11-25T23:39:31.318Z,94.13
2022-11-25T23:42:43.012Z,90.48
2022-11-25T23:45:58.572Z,80.03
2022-11-25T23:49:13.774Z,70.10
2022-11-25T23:52:29.687Z,72.03
2022-11-25T23:55:43.292Z,78.05
2022-11-25T23:58:54.993Z,73.23
